sensor_id;sensor_type;location;lat;lon;timestamp;P1;durP1;ratioP1;P2;durP2;ratioP2
52574;SDS011;38468;48.114;-1.684;2022-08-18T00:02:02;30.38;;;16.88;;
52574;SDS011;38468;48.114;-1.684;2022-08-18T00:04:24;31.92;;;16.67;;
52574;SDS011;38468;48.114;-1.684;2022-08-18T00:06:28;36.40;;;17.52;;
52574;SDS011;38468;48.114;-1.684;2022-08-18T00:08:29;27.80;;;16.58;;
52574;SDS011;38468;48.114;-1.684;2022-08-18T00:10:30;30.42;;;15.88;;
52574;SDS011;38468;48.114;-1.684;2022-08-18T00:12:36;24.50;;;14.77;;
52574;SDS011;38468;48.114;-1.684;2022-08-18T00:14:38;32.95;;;16.00;;
52574;SDS011;38468;48.114;-1.684;2022-08-18T00:16:39;28.77;;;16.98;;
52574;SDS011;38468;48.114;-1.684;2022-08-18T00:18:40;31.80;;;15.55;;
52574;SDS011;38468;48.114;-1.684;2022-08-18T00:20:40;32.08;;;16.85;;
52574;SDS011;38468;48.114;-1.684;2022-08-18T00:22:41;35.10;;;17.60;;
52574;SDS011;38468;48.114;-1.684;2022-08-18T00:24:45;38.97;;;18.30;;
52574;SDS011;38468;48.114;-1.684;2022-08-18T00:26:49;30.83;;;16.38;;
52574;SDS011;38468;48.114;-1.684;2022-08-18T00:28:49;32.65;;;15.77;;
52574;SDS011;38468;48.114;-1.684;2022-08-18T00:30:50;29.98;;;16.25;;
52574;SDS011;38468;48.114;-1.684;2022-08-18T00:32:55;40.20;;;17.70;;
52574;SDS011;38468;48.114;-1.684;2022-08-18T00:34:57;39.30;;;17.77;;
52574;SDS011;38468;48.114;-1.684;2022-08-18T00:37:26;30.27;;;17.15;;
52574;SDS011;38468;48.114;-1.684;2022-08-18T00:39:27;35.25;;;16.75;;
52574;SDS011;38468;48.114;-1.684;2022-08-18T00:41:29;35.05;;;18.98;;
52574;SDS011;38468;48.114;-1.684;2022-08-18T00:43:31;41.42;;;18.00;;
52574;SDS011;38468;48.114;-1.684;2022-08-18T00:45:39;30.25;;;18.17;;
52574;SDS011;38468;48.114;-1.684;2022-08-18T00:47:41;31.63;;;18.80;;
52574;SDS011;38468;48.114;-1.684;2022-08-18T00:49:42;31.73;;;17.55;;
52574;SDS011;38468;48.114;-1.684;2022-08-18T00:51:46;33.58;;;17.83;;
52574;SDS011;38468;48.114;-1.684;2022-08-18T00:53:55;38.03;;;18.27;;
52574;SDS011;38468;48.114;-1.684;2022-08-18T00:55:58;36.00;;;20.33;;
52574;SDS011;38468;48.114;-1.684;2022-08-18T00:58:12;41.95;;;18.25;;
52574;SDS011;38468;48.114;-1.684;2022-08-18T01:00:20;28.02;;;15.77;;
52574;SDS011;38468;48.114;-1.684;2022-08-18T01:02:23;39.20;;;18.42;;
52574;SDS011;38468;48.114;-1.684;2022-08-18T01:04:28;39.58;;;18.88;;
52574;SDS011;38468;48.114;-1.684;2022-08-18T01:07:38;39.47;;;19.55;;
52574;SDS011;38468;48.114;-1.684;2022-08-18T01:09:09;29.70;;;17.50;;
52574;SDS011;38468;48.114;-1.684;2022-08-18T01:11:10;31.55;;;18.83;;
52574;SDS011;38468;48.114;-1.684;2022-08-18T01:13:10;35.60;;;18.38;;
52574;SDS011;38468;48.114;-1.684;2022-08-18T01:15:11;50.55;;;21.33;;
52574;SDS011;38468;48.114;-1.684;2022-08-18T01:17:12;38.72;;;19.40;;
52574;SDS011;38468;48.114;-1.684;2022-08-18T01:19:32;36.85;;;19.20;;
52574;SDS011;38468;48.114;-1.684;2022-08-18T01:21:54;36.92;;;18.83;;
52574;SDS011;38468;48.114;-1.684;2022-08-18T01:24:01;40.45;;;21.48;;
52574;SDS011;38468;48.114;-1.684;2022-08-18T01:26:04;33.65;;;18.30;;
52574;SDS011;38468;48.114;-1.684;2022-08-18T01:28:08;36.08;;;19.52;;
52574;SDS011;38468;48.114;-1.684;2022-08-18T01:30:10;39.15;;;19.33;;
52574;SDS011;38468;48.114;-1.684;2022-08-18T01:32:14;38.47;;;17.92;;
52574;SDS011;38468;48.114;-1.684;2022-08-18T01:34:19;39.30;;;19.35;;
52574;SDS011;38468;48.114;-1.684;2022-08-18T01:36:21;33.28;;;16.98;;
52574;SDS011;38468;48.114;-1.684;2022-08-18T01:38:22;30.23;;;17.70;;
52574;SDS011;38468;48.114;-1.684;2022-08-18T01:40:25;43.42;;;22.05;;
52574;SDS011;38468;48.114;-1.684;2022-08-18T01:42:25;38.85;;;19.23;;
52574;SDS011;38468;48.114;-1.684;2022-08-18T01:44:26;33.53;;;20.27;;
52574;SDS011;38468;48.114;-1.684;2022-08-18T01:46:28;35.78;;;20.42;;
52574;SDS011;38468;48.114;-1.684;2022-08-18T01:48:31;35.72;;;19.88;;
52574;SDS011;38468;48.114;-1.684;2022-08-18T01:50:36;40.40;;;20.83;;
52574;SDS011;38468;48.114;-1.684;2022-08-18T01:52:40;43.35;;;20.20;;
52574;SDS011;38468;48.114;-1.684;2022-08-18T01:54:40;42.33;;;22.13;;
52574;SDS011;38468;48.114;-1.684;2022-08-18T01:56:42;38.53;;;21.70;;
52574;SDS011;38468;48.114;-1.684;2022-08-18T01:58:42;39.60;;;18.85;;
52574;SDS011;38468;48.114;-1.684;2022-08-18T02:00:45;37.22;;;20.83;;
52574;SDS011;38468;48.114;-1.684;2022-08-18T02:02:46;34.80;;;19.52;;
52574;SDS011;38468;48.114;-1.684;2022-08-18T02:04:48;33.75;;;18.75;;
52574;SDS011;38468;48.114;-1.684;2022-08-18T02:06:52;37.75;;;19.00;;
52574;SDS011;38468;48.114;-1.684;2022-08-18T02:08:53;35.25;;;18.42;;
52574;SDS011;38468;48.114;-1.684;2022-08-18T02:10:53;41.63;;;19.45;;
52574;SDS011;38468;48.114;-1.684;2022-08-18T02:12:57;35.45;;;18.33;;
52574;SDS011;38468;48.114;-1.684;2022-08-18T02:14:58;33.40;;;19.02;;
52574;SDS011;38468;48.114;-1.684;2022-08-18T02:16:59;34.90;;;18.65;;
52574;SDS011;38468;48.114;-1.684;2022-08-18T02:19:02;47.08;;;21.67;;
52574;SDS011;38468;48.114;-1.684;2022-08-18T02:21:10;30.67;;;19.25;;
52574;SDS011;38468;48.114;-1.684;2022-08-18T02:23:13;36.53;;;18.65;;
52574;SDS011;38468;48.114;-1.684;2022-08-18T02:25:13;35.08;;;18.73;;
52574;SDS011;38468;48.114;-1.684;2022-08-18T02:27:15;38.50;;;19.52;;
52574;SDS011;38468;48.114;-1.684;2022-08-18T02:29:16;40.00;;;19.70;;
52574;SDS011;38468;48.114;-1.684;2022-08-18T02:31:18;40.70;;;20.42;;
52574;SDS011;38468;48.114;-1.684;2022-08-18T02:33:20;34.92;;;18.63;;
52574;SDS011;38468;48.114;-1.684;2022-08-18T02:35:21;41.03;;;21.50;;
52574;SDS011;38468;48.114;-1.684;2022-08-18T02:37:21;35.13;;;18.67;;
52574;SDS011;38468;48.114;-1.684;2022-08-18T02:39:22;35.33;;;18.52;;
52574;SDS011;38468;48.114;-1.684;2022-08-18T02:41:22;38.95;;;20.00;;
52574;SDS011;38468;48.114;-1.684;2022-08-18T02:45:26;37.65;;;20.15;;
52574;SDS011;38468;48.114;-1.684;2022-08-18T02:47:26;38.67;;;19.95;;
52574;SDS011;38468;48.114;-1.684;2022-08-18T02:49:27;32.08;;;19.42;;
52574;SDS011;38468;48.114;-1.684;2022-08-18T02:51:28;42.58;;;21.25;;
52574;SDS011;38468;48.114;-1.684;2022-08-18T02:53:30;39.85;;;20.13;;
52574;SDS011;38468;48.114;-1.684;2022-08-18T02:55:31;41.55;;;18.63;;
52574;SDS011;38468;48.114;-1.684;2022-08-18T02:57:32;40.58;;;19.52;;
52574;SDS011;38468;48.114;-1.684;2022-08-18T02:59:33;42.30;;;20.05;;
52574;SDS011;38468;48.114;-1.684;2022-08-18T03:01:34;41.97;;;20.58;;
52574;SDS011;38468;48.114;-1.684;2022-08-18T03:03:37;38.63;;;20.30;;
52574;SDS011;38468;48.114;-1.684;2022-08-18T03:05:38;42.67;;;22.13;;
52574;SDS011;38468;48.114;-1.684;2022-08-18T03:07:39;40.97;;;19.80;;
52574;SDS011;38468;48.114;-1.684;2022-08-18T03:09:40;36.85;;;20.50;;
52574;SDS011;38468;48.114;-1.684;2022-08-18T03:11:41;32.43;;;20.57;;
52574;SDS011;38468;48.114;-1.684;2022-08-18T03:13:42;41.10;;;22.05;;
52574;SDS011;38468;48.114;-1.684;2022-08-18T03:15:43;40.28;;;20.20;;
52574;SDS011;38468;48.114;-1.684;2022-08-18T03:17:44;36.15;;;19.48;;
52574;SDS011;38468;48.114;-1.684;2022-08-18T03:19:45;45.70;;;22.08;;
52574;SDS011;38468;48.114;-1.684;2022-08-18T03:21:46;41.63;;;20.13;;
52574;SDS011;38468;48.114;-1.684;2022-08-18T03:23:47;45.20;;;23.70;;
52574;SDS011;38468;48.114;-1.684;2022-08-18T03:25:50;43.47;;;20.08;;
52574;SDS011;38468;48.114;-1.684;2022-08-18T03:27:50;44.10;;;18.17;;
52574;SDS011;38468;48.114;-1.684;2022-08-18T03:29:51;39.10;;;18.95;;
52574;SDS011;38468;48.114;-1.684;2022-08-18T03:31:52;37.10;;;20.13;;
52574;SDS011;38468;48.114;-1.684;2022-08-18T03:33:53;44.90;;;21.58;;
52574;SDS011;38468;48.114;-1.684;2022-08-18T03:35:55;39.42;;;19.63;;
52574;SDS011;38468;48.114;-1.684;2022-08-18T03:37:59;41.35;;;19.98;;
52574;SDS011;38468;48.114;-1.684;2022-08-18T03:39:59;43.08;;;20.33;;
52574;SDS011;38468;48.114;-1.684;2022-08-18T03:42:00;33.28;;;18.23;;
52574;SDS011;38468;48.114;-1.684;2022-08-18T03:44:01;41.03;;;20.58;;
52574;SDS011;38468;48.114;-1.684;2022-08-18T03:46:03;42.78;;;20.75;;
52574;SDS011;38468;48.114;-1.684;2022-08-18T03:48:08;40.25;;;20.00;;
52574;SDS011;38468;48.114;-1.684;2022-08-18T03:50:10;34.23;;;18.87;;
52574;SDS011;38468;48.114;-1.684;2022-08-18T03:52:11;37.70;;;19.42;;
52574;SDS011;38468;48.114;-1.684;2022-08-18T03:54:13;50.03;;;22.80;;
52574;SDS011;38468;48.114;-1.684;2022-08-18T03:56:16;33.28;;;19.35;;
52574;SDS011;38468;48.114;-1.684;2022-08-18T03:58:19;36.92;;;21.48;;
52574;SDS011;38468;48.114;-1.684;2022-08-18T04:00:19;46.28;;;23.65;;
52574;SDS011;38468;48.114;-1.684;2022-08-18T04:02:22;45.22;;;23.20;;
52574;SDS011;38468;48.114;-1.684;2022-08-18T04:04:25;33.88;;;19.38;;
52574;SDS011;38468;48.114;-1.684;2022-08-18T04:06:29;42.33;;;18.55;;
52574;SDS011;38468;48.114;-1.684;2022-08-18T04:08:31;39.72;;;20.80;;
52574;SDS011;38468;48.114;-1.684;2022-08-18T04:10:32;43.95;;;22.77;;
52574;SDS011;38468;48.114;-1.684;2022-08-18T04:12:34;41.70;;;20.75;;
52574;SDS011;38468;48.114;-1.684;2022-08-18T04:14:37;37.60;;;20.02;;
52574;SDS011;38468;48.114;-1.684;2022-08-18T04:16:39;37.90;;;20.75;;
52574;SDS011;38468;48.114;-1.684;2022-08-18T04:18:40;35.17;;;19.42;;
52574;SDS011;38468;48.114;-1.684;2022-08-18T04:20:41;35.45;;;18.98;;
52574;SDS011;38468;48.114;-1.684;2022-08-18T04:22:41;38.03;;;20.23;;
52574;SDS011;38468;48.114;-1.684;2022-08-18T04:24:44;35.90;;;18.70;;
52574;SDS011;38468;48.114;-1.684;2022-08-18T04:26:46;41.58;;;21.33;;
52574;SDS011;38468;48.114;-1.684;2022-08-18T04:30:48;41.40;;;20.05;;
52574;SDS011;38468;48.114;-1.684;2022-08-18T04:32:49;34.33;;;18.73;;
52574;SDS011;38468;48.114;-1.684;2022-08-18T04:34:50;34.40;;;20.02;;
52574;SDS011;38468;48.114;-1.684;2022-08-18T04:36:51;34.20;;;18.95;;
52574;SDS011;38468;48.114;-1.684;2022-08-18T04:38:52;38.80;;;19.42;;
52574;SDS011;38468;48.114;-1.684;2022-08-18T04:40:53;33.55;;;20.63;;
52574;SDS011;38468;48.114;-1.684;2022-08-18T04:44:56;36.95;;;18.42;;
52574;SDS011;38468;48.114;-1.684;2022-08-18T04:46:59;43.27;;;21.00;;
52574;SDS011;38468;48.114;-1.684;2022-08-18T04:49:00;40.05;;;21.65;;
52574;SDS011;38468;48.114;-1.684;2022-08-18T04:51:03;36.30;;;20.90;;
52574;SDS011;38468;48.114;-1.684;2022-08-18T04:53:07;40.88;;;20.17;;
52574;SDS011;38468;48.114;-1.684;2022-08-18T04:55:26;39.20;;;20.38;;
52574;SDS011;38468;48.114;-1.684;2022-08-18T04:57:28;33.05;;;17.88;;
52574;SDS011;38468;48.114;-1.684;2022-08-18T04:59:30;32.55;;;17.67;;
52574;SDS011;38468;48.114;-1.684;2022-08-18T05:01:35;35.75;;;19.05;;
52574;SDS011;38468;48.114;-1.684;2022-08-18T05:03:38;34.50;;;18.75;;
52574;SDS011;38468;48.114;-1.684;2022-08-18T05:05:38;31.20;;;17.30;;
52574;SDS011;38468;48.114;-1.684;2022-08-18T05:07:43;31.83;;;17.83;;
52574;SDS011;38468;48.114;-1.684;2022-08-18T05:09:45;34.85;;;17.92;;
52574;SDS011;38468;48.114;-1.684;2022-08-18T05:11:46;37.85;;;18.58;;
52574;SDS011;38468;48.114;-1.684;2022-08-18T05:13:47;34.47;;;19.52;;
52574;SDS011;38468;48.114;-1.684;2022-08-18T05:15:54;28.83;;;17.38;;
52574;SDS011;38468;48.114;-1.684;2022-08-18T05:17:56;34.50;;;18.75;;
52574;SDS011;38468;48.114;-1.684;2022-08-18T05:20:00;32.75;;;19.08;;
52574;SDS011;38468;48.114;-1.684;2022-08-18T05:22:02;38.53;;;19.00;;
52574;SDS011;38468;48.114;-1.684;2022-08-18T05:24:03;31.85;;;17.88;;
52574;SDS011;38468;48.114;-1.684;2022-08-18T05:26:04;34.70;;;18.00;;
52574;SDS011;38468;48.114;-1.684;2022-08-18T05:28:05;37.72;;;19.33;;
52574;SDS011;38468;48.114;-1.684;2022-08-18T05:30:06;40.53;;;20.80;;
52574;SDS011;38468;48.114;-1.684;2022-08-18T05:32:07;42.15;;;19.30;;
52574;SDS011;38468;48.114;-1.684;2022-08-18T05:34:08;31.20;;;17.25;;
52574;SDS011;38468;48.114;-1.684;2022-08-18T05:38:30;30.15;;;19.20;;
52574;SDS011;38468;48.114;-1.684;2022-08-18T05:40:36;32.45;;;17.75;;
52574;SDS011;38468;48.114;-1.684;2022-08-18T05:42:38;37.50;;;19.45;;
52574;SDS011;38468;48.114;-1.684;2022-08-18T05:44:41;36.47;;;19.55;;
52574;SDS011;38468;48.114;-1.684;2022-08-18T05:48:49;32.58;;;19.02;;
52574;SDS011;38468;48.114;-1.684;2022-08-18T05:50:50;38.42;;;17.90;;
52574;SDS011;38468;48.114;-1.684;2022-08-18T05:52:57;34.00;;;17.15;;
52574;SDS011;38468;48.114;-1.684;2022-08-18T05:55:16;34.55;;;17.17;;
52574;SDS011;38468;48.114;-1.684;2022-08-18T05:58:03;35.42;;;17.95;;
52574;SDS011;38468;48.114;-1.684;2022-08-18T06:00:09;42.28;;;19.00;;
52574;SDS011;38468;48.114;-1.684;2022-08-18T06:02:15;31.45;;;17.30;;
52574;SDS011;38468;48.114;-1.684;2022-08-18T06:04:28;27.38;;;16.30;;
52574;SDS011;38468;48.114;-1.684;2022-08-18T06:06:41;42.58;;;17.98;;
52574;SDS011;38468;48.114;-1.684;2022-08-18T06:08:44;41.38;;;21.52;;
52574;SDS011;38468;48.114;-1.684;2022-08-18T06:10:52;42.83;;;23.23;;
52574;SDS011;38468;48.114;-1.684;2022-08-18T06:12:55;30.15;;;18.05;;
52574;SDS011;38468;48.114;-1.684;2022-08-18T06:15:03;26.67;;;15.35;;
52574;SDS011;38468;48.114;-1.684;2022-08-18T06:19:56;28.55;;;17.70;;
52574;SDS011;38468;48.114;-1.684;2022-08-18T06:24:55;40.30;;;22.27;;
52574;SDS011;38468;48.114;-1.684;2022-08-18T06:32:19;32.10;;;16.92;;
52574;SDS011;38468;48.114;-1.684;2022-08-18T06:34:44;31.02;;;18.92;;
52574;SDS011;38468;48.114;-1.684;2022-08-18T06:37:05;27.98;;;16.10;;
52574;SDS011;38468;48.114;-1.684;2022-08-18T06:39:34;31.80;;;16.60;;
52574;SDS011;38468;48.114;-1.684;2022-08-18T06:41:41;29.30;;;15.40;;
52574;SDS011;38468;48.114;-1.684;2022-08-18T06:43:58;30.90;;;16.85;;
52574;SDS011;38468;48.114;-1.684;2022-08-18T06:46:06;31.48;;;16.02;;
52574;SDS011;38468;48.114;-1.684;2022-08-18T06:48:15;39.95;;;22.52;;
52574;SDS011;38468;48.114;-1.684;2022-08-18T06:50:31;31.63;;;18.65;;
52574;SDS011;38468;48.114;-1.684;2022-08-18T06:52:38;28.60;;;17.83;;
52574;SDS011;38468;48.114;-1.684;2022-08-18T06:54:51;25.67;;;15.23;;
52574;SDS011;38468;48.114;-1.684;2022-08-18T06:56:54;28.88;;;15.88;;
52574;SDS011;38468;48.114;-1.684;2022-08-18T06:59:12;24.58;;;13.30;;
52574;SDS011;38468;48.114;-1.684;2022-08-18T07:01:14;27.77;;;14.85;;
52574;SDS011;38468;48.114;-1.684;2022-08-18T07:03:18;28.00;;;12.18;;
52574;SDS011;38468;48.114;-1.684;2022-08-18T07:08:29;27.75;;;14.63;;
52574;SDS011;38468;48.114;-1.684;2022-08-18T07:10:36;26.27;;;14.35;;
52574;SDS011;38468;48.114;-1.684;2022-08-18T07:12:48;29.48;;;14.40;;
52574;SDS011;38468;48.114;-1.684;2022-08-18T07:14:56;27.38;;;15.07;;
52574;SDS011;38468;48.114;-1.684;2022-08-18T07:17:08;24.60;;;14.00;;
52574;SDS011;38468;48.114;-1.684;2022-08-18T07:21:32;20.52;;;12.85;;
52574;SDS011;38468;48.114;-1.684;2022-08-18T07:23:35;30.02;;;14.20;;
52574;SDS011;38468;48.114;-1.684;2022-08-18T07:25:40;26.52;;;14.95;;
52574;SDS011;38468;48.114;-1.684;2022-08-18T07:27:47;25.70;;;13.98;;
52574;SDS011;38468;48.114;-1.684;2022-08-18T07:29:59;38.72;;;19.08;;
52574;SDS011;38468;48.114;-1.684;2022-08-18T07:32:14;33.55;;;18.42;;
52574;SDS011;38468;48.114;-1.684;2022-08-18T07:34:26;31.35;;;14.25;;
52574;SDS011;38468;48.114;-1.684;2022-08-18T07:36:48;22.42;;;13.20;;
52574;SDS011;38468;48.114;-1.684;2022-08-18T07:38:55;21.10;;;12.38;;
52574;SDS011;38468;48.114;-1.684;2022-08-18T07:41:03;25.98;;;12.95;;
52574;SDS011;38468;48.114;-1.684;2022-08-18T07:47:48;23.05;;;12.82;;
52574;SDS011;38468;48.114;-1.684;2022-08-18T07:49:54;25.27;;;11.30;;
52574;SDS011;38468;48.114;-1.684;2022-08-18T07:56:52;17.40;;;10.95;;
52574;SDS011;38468;48.114;-1.684;2022-08-18T07:59:19;24.23;;;13.43;;
52574;SDS011;38468;48.114;-1.684;2022-08-18T08:01:39;16.65;;;10.63;;
52574;SDS011;38468;48.114;-1.684;2022-08-18T08:10:41;19.88;;;11.93;;
52574;SDS011;38468;48.114;-1.684;2022-08-18T08:17:31;32.55;;;14.90;;
52574;SDS011;38468;48.114;-1.684;2022-08-18T08:19:44;21.10;;;11.38;;
52574;SDS011;38468;48.114;-1.684;2022-08-18T08:21:59;18.25;;;11.45;;
52574;SDS011;38468;48.114;-1.684;2022-08-18T08:24:12;14.27;;;9.23;;
52574;SDS011;38468;48.114;-1.684;2022-08-18T08:29:18;18.55;;;11.30;;
52574;SDS011;38468;48.114;-1.684;2022-08-18T08:32:05;15.70;;;10.02;;
52574;SDS011;38468;48.114;-1.684;2022-08-18T08:36:47;20.23;;;11.20;;
52574;SDS011;38468;48.114;-1.684;2022-08-18T08:41:18;16.27;;;8.43;;
52574;SDS011;38468;48.114;-1.684;2022-08-18T08:43:25;19.80;;;9.75;;
52574;SDS011;38468;48.114;-1.684;2022-08-18T08:45:33;14.73;;;8.77;;
52574;SDS011;38468;48.114;-1.684;2022-08-18T08:49:57;18.85;;;8.05;;
52574;SDS011;38468;48.114;-1.684;2022-08-18T08:52:08;16.77;;;8.40;;
52574;SDS011;38468;48.114;-1.684;2022-08-18T08:54:21;15.80;;;8.82;;
52574;SDS011;38468;48.114;-1.684;2022-08-18T08:56:51;15.75;;;7.13;;
52574;SDS011;38468;48.114;-1.684;2022-08-18T08:58:58;12.07;;;7.07;;
52574;SDS011;38468;48.114;-1.684;2022-08-18T09:01:03;10.98;;;7.53;;
52574;SDS011;38468;48.114;-1.684;2022-08-18T09:05:34;12.52;;;6.38;;
52574;SDS011;38468;48.114;-1.684;2022-08-18T09:12:04;10.73;;;6.53;;
52574;SDS011;38468;48.114;-1.684;2022-08-18T09:22:00;10.07;;;7.35;;
52574;SDS011;38468;48.114;-1.684;2022-08-18T09:24:23;12.02;;;6.10;;
52574;SDS011;38468;48.114;-1.684;2022-08-18T09:28:41;7.85;;;7.00;;
52574;SDS011;38468;48.114;-1.684;2022-08-18T09:44:56;8.82;;;4.95;;
52574;SDS011;38468;48.114;-1.684;2022-08-18T09:47:00;9.00;;;4.97;;
52574;SDS011;38468;48.114;-1.684;2022-08-18T09:51:34;8.73;;;5.30;;
52574;SDS011;38468;48.114;-1.684;2022-08-18T09:54:22;8.38;;;5.03;;
52574;SDS011;38468;48.114;-1.684;2022-08-18T09:56:12;6.05;;;4.30;;
52574;SDS011;38468;48.114;-1.684;2022-08-18T10:00:39;5.93;;;4.78;;
52574;SDS011;38468;48.114;-1.684;2022-08-18T10:04:41;9.33;;;4.43;;
52574;SDS011;38468;48.114;-1.684;2022-08-18T10:06:50;3.88;;;2.78;;
52574;SDS011;38468;48.114;-1.684;2022-08-18T10:08:58;6.45;;;3.75;;
52574;SDS011;38468;48.114;-1.684;2022-08-18T10:11:23;7.53;;;4.97;;
52574;SDS011;38468;48.114;-1.684;2022-08-18T10:14:05;17.00;;;7.93;;
52574;SDS011;38468;48.114;-1.684;2022-08-18T10:22:53;9.73;;;3.85;;
52574;SDS011;38468;48.114;-1.684;2022-08-18T10:24:55;7.50;;;4.88;;
52574;SDS011;38468;48.114;-1.684;2022-08-18T10:26:58;7.95;;;5.10;;
52574;SDS011;38468;48.114;-1.684;2022-08-18T10:29:05;9.35;;;5.35;;
52574;SDS011;38468;48.114;-1.684;2022-08-18T10:31:10;8.98;;;5.38;;
52574;SDS011;38468;48.114;-1.684;2022-08-18T10:33:10;13.80;;;5.90;;
52574;SDS011;38468;48.114;-1.684;2022-08-18T10:37:37;8.40;;;4.32;;
52574;SDS011;38468;48.114;-1.684;2022-08-18T10:39:44;6.25;;;4.18;;
52574;SDS011;38468;48.114;-1.684;2022-08-18T10:42:03;9.40;;;4.97;;
52574;SDS011;38468;48.114;-1.684;2022-08-18T10:44:12;4.75;;;4.20;;
52574;SDS011;38468;48.114;-1.684;2022-08-18T10:46:21;11.57;;;4.50;;
52574;SDS011;38468;48.114;-1.684;2022-08-18T10:48:25;4.32;;;3.67;;
52574;SDS011;38468;48.114;-1.684;2022-08-18T10:50:31;6.30;;;3.55;;
52574;SDS011;38468;48.114;-1.684;2022-08-18T11:04:21;10.35;;;2.72;;
52574;SDS011;38468;48.114;-1.684;2022-08-18T11:06:26;4.03;;;3.20;;
52574;SDS011;38468;48.114;-1.684;2022-08-18T11:08:27;7.53;;;4.13;;
52574;SDS011;38468;48.114;-1.684;2022-08-18T11:10:36;10.17;;;6.17;;
52574;SDS011;38468;48.114;-1.684;2022-08-18T11:19:41;7.30;;;3.38;;
52574;SDS011;38468;48.114;-1.684;2022-08-18T11:21:45;5.80;;;2.75;;
52574;SDS011;38468;48.114;-1.684;2022-08-18T11:24:47;3.35;;;3.05;;
52574;SDS011;38468;48.114;-1.684;2022-08-18T11:26:25;3.22;;;2.90;;
52574;SDS011;38468;48.114;-1.684;2022-08-18T11:28:33;4.47;;;3.15;;
52574;SDS011;38468;48.114;-1.684;2022-08-18T11:30:34;3.80;;;3.50;;
52574;SDS011;38468;48.114;-1.684;2022-08-18T11:32:39;5.38;;;3.25;;
52574;SDS011;38468;48.114;-1.684;2022-08-18T11:36:43;4.80;;;3.00;;
52574;SDS011;38468;48.114;-1.684;2022-08-18T11:39:08;6.35;;;2.72;;
52574;SDS011;38468;48.114;-1.684;2022-08-18T11:41:11;3.10;;;2.63;;
52574;SDS011;38468;48.114;-1.684;2022-08-18T11:43:18;5.60;;;4.40;;
52574;SDS011;38468;48.114;-1.684;2022-08-18T11:45:26;5.38;;;2.78;;
52574;SDS011;38468;48.114;-1.684;2022-08-18T11:47:32;4.82;;;3.25;;
52574;SDS011;38468;48.114;-1.684;2022-08-18T11:49:36;4.03;;;2.45;;
52574;SDS011;38468;48.114;-1.684;2022-08-18T11:51:52;3.78;;;2.78;;
52574;SDS011;38468;48.114;-1.684;2022-08-18T11:56:42;5.72;;;2.53;;
52574;SDS011;38468;48.114;-1.684;2022-08-18T11:58:44;5.57;;;3.47;;
52574;SDS011;38468;48.114;-1.684;2022-08-18T12:00:54;4.25;;;2.83;;
52574;SDS011;38468;48.114;-1.684;2022-08-18T12:03:00;5.53;;;2.83;;
52574;SDS011;38468;48.114;-1.684;2022-08-18T12:05:04;4.47;;;2.65;;
52574;SDS011;38468;48.114;-1.684;2022-08-18T12:07:07;2.97;;;2.60;;
52574;SDS011;38468;48.114;-1.684;2022-08-18T12:09:17;3.63;;;2.45;;
52574;SDS011;38468;48.114;-1.684;2022-08-18T12:11:32;5.30;;;2.88;;
52574;SDS011;38468;48.114;-1.684;2022-08-18T12:13:35;3.13;;;2.83;;
52574;SDS011;38468;48.114;-1.684;2022-08-18T12:15:36;9.67;;;2.83;;
52574;SDS011;38468;48.114;-1.684;2022-08-18T12:17:38;4.18;;;2.47;;
52574;SDS011;38468;48.114;-1.684;2022-08-18T12:19:40;4.97;;;2.25;;
52574;SDS011;38468;48.114;-1.684;2022-08-18T12:21:49;4.63;;;2.70;;
52574;SDS011;38468;48.114;-1.684;2022-08-18T12:23:53;2.88;;;2.38;;
52574;SDS011;38468;48.114;-1.684;2022-08-18T12:25:53;2.97;;;2.40;;
52574;SDS011;38468;48.114;-1.684;2022-08-18T12:27:54;2.30;;;2.10;;
52574;SDS011;38468;48.114;-1.684;2022-08-18T12:29:55;2.60;;;2.33;;
52574;SDS011;38468;48.114;-1.684;2022-08-18T12:31:57;3.78;;;2.65;;
52574;SDS011;38468;48.114;-1.684;2022-08-18T12:33:57;5.40;;;2.63;;
52574;SDS011;38468;48.114;-1.684;2022-08-18T12:35:58;4.67;;;2.50;;
52574;SDS011;38468;48.114;-1.684;2022-08-18T12:37:59;2.00;;;1.80;;
52574;SDS011;38468;48.114;-1.684;2022-08-18T12:39:59;3.37;;;2.53;;
52574;SDS011;38468;48.114;-1.684;2022-08-18T12:42:00;2.65;;;2.42;;
52574;SDS011;38468;48.114;-1.684;2022-08-18T12:44:01;3.43;;;3.07;;
52574;SDS011;38468;48.114;-1.684;2022-08-18T12:46:02;2.87;;;2.20;;
52574;SDS011;38468;48.114;-1.684;2022-08-18T12:48:03;4.97;;;2.27;;
52574;SDS011;38468;48.114;-1.684;2022-08-18T12:50:05;2.20;;;2.00;;
52574;SDS011;38468;48.114;-1.684;2022-08-18T12:52:06;2.25;;;2.03;;
52574;SDS011;38468;48.114;-1.684;2022-08-18T12:54:07;15.73;;;3.10;;
52574;SDS011;38468;48.114;-1.684;2022-08-18T12:56:12;4.80;;;2.90;;
52574;SDS011;38468;48.114;-1.684;2022-08-18T12:58:16;3.50;;;2.53;;
52574;SDS011;38468;48.114;-1.684;2022-08-18T13:00:17;3.00;;;2.03;;
52574;SDS011;38468;48.114;-1.684;2022-08-18T13:02:19;4.47;;;1.45;;
52574;SDS011;38468;48.114;-1.684;2022-08-18T13:04:20;3.97;;;2.90;;
52574;SDS011;38468;48.114;-1.684;2022-08-18T13:06:23;2.77;;;1.97;;
52574;SDS011;38468;48.114;-1.684;2022-08-18T13:08:24;1.83;;;1.60;;
52574;SDS011;38468;48.114;-1.684;2022-08-18T13:10:25;5.20;;;1.97;;
52574;SDS011;38468;48.114;-1.684;2022-08-18T13:12:26;2.90;;;1.80;;
52574;SDS011;38468;48.114;-1.684;2022-08-18T13:14:26;2.43;;;2.07;;
52574;SDS011;38468;48.114;-1.684;2022-08-18T13:16:27;2.23;;;1.93;;
52574;SDS011;38468;48.114;-1.684;2022-08-18T13:18:33;2.85;;;1.95;;
52574;SDS011;38468;48.114;-1.684;2022-08-18T13:20:35;5.22;;;1.90;;
52574;SDS011;38468;48.114;-1.684;2022-08-18T13:22:36;2.73;;;2.40;;
52574;SDS011;38468;48.114;-1.684;2022-08-18T13:24:39;2.75;;;2.10;;
52574;SDS011;38468;48.114;-1.684;2022-08-18T13:26:41;2.20;;;2.10;;
52574;SDS011;38468;48.114;-1.684;2022-08-18T13:28:43;2.17;;;1.92;;
52574;SDS011;38468;48.114;-1.684;2022-08-18T13:30:44;2.87;;;2.37;;
52574;SDS011;38468;48.114;-1.684;2022-08-18T13:32:45;4.13;;;2.13;;
52574;SDS011;38468;48.114;-1.684;2022-08-18T13:34:45;2.23;;;1.90;;
52574;SDS011;38468;48.114;-1.684;2022-08-18T13:36:46;3.70;;;2.33;;
52574;SDS011;38468;48.114;-1.684;2022-08-18T13:38:47;4.93;;;1.97;;
52574;SDS011;38468;48.114;-1.684;2022-08-18T13:40:49;3.13;;;2.17;;
52574;SDS011;38468;48.114;-1.684;2022-08-18T13:42:50;5.05;;;2.50;;
52574;SDS011;38468;48.114;-1.684;2022-08-18T13:44:51;5.77;;;2.43;;
52574;SDS011;38468;48.114;-1.684;2022-08-18T13:46:53;4.68;;;2.80;;
52574;SDS011;38468;48.114;-1.684;2022-08-18T13:48:54;2.72;;;2.50;;
52574;SDS011;38468;48.114;-1.684;2022-08-18T13:51:01;4.03;;;2.20;;
52574;SDS011;38468;48.114;-1.684;2022-08-18T13:53:02;8.95;;;2.85;;
52574;SDS011;38468;48.114;-1.684;2022-08-18T13:55:04;2.57;;;2.00;;
52574;SDS011;38468;48.114;-1.684;2022-08-18T13:57:08;4.47;;;2.30;;
52574;SDS011;38468;48.114;-1.684;2022-08-18T13:59:08;5.73;;;2.17;;
52574;SDS011;38468;48.114;-1.684;2022-08-18T14:01:09;2.23;;;2.10;;
52574;SDS011;38468;48.114;-1.684;2022-08-18T14:03:12;2.35;;;2.13;;
52574;SDS011;38468;48.114;-1.684;2022-08-18T14:05:13;2.50;;;2.20;;
52574;SDS011;38468;48.114;-1.684;2022-08-18T14:07:15;4.22;;;2.72;;
52574;SDS011;38468;48.114;-1.684;2022-08-18T14:09:16;2.72;;;2.53;;
52574;SDS011;38468;48.114;-1.684;2022-08-18T14:11:17;8.73;;;3.10;;
52574;SDS011;38468;48.114;-1.684;2022-08-18T14:13:19;2.53;;;2.22;;
52574;SDS011;38468;48.114;-1.684;2022-08-18T14:15:21;4.53;;;2.30;;
52574;SDS011;38468;48.114;-1.684;2022-08-18T14:17:23;6.55;;;2.53;;
52574;SDS011;38468;48.114;-1.684;2022-08-18T14:19:25;4.25;;;1.63;;